Contact Us:
Email: info@sawbill.com
Phone: (218)663-7150
Fax: (218)663-7980
Mail: 4620 Sawbill Trail
Box 2129
Tofte, MN 55615


Powered by
Movable Type 3.15
 
Sawbill Weather History Archives: August 2007
Current Sawbill Weather History | « July 2007 | September 2007 »


Date

High
Temperature

Low
Temperature

Barometric
Pressure

Relative
Humidity 7AM

9 AM
Temperature

Moisture

Snow

8/30/07 76 56 30.21 69% 60 0
8/29/07 74 46 30.24 41% 52 0
8/28/07 67 51 30.21 55% 55 0
8/27/07 79 63 29.97 92% 64 .66"
8/26/07 76 54 29.90 82% 63 0
8/25/07 73 44 30.05 87% 49 0
8/24/07 65 52 29.96 86% 53 0
8/23/07 72 52 29.87 87% 53 0
8/22/07 80 55 29.74 90% 60 Trace
8/21/07 63 55 29.88 88% 55 .62"
8/20/07 64 55 29.93 88% 58 0
8/19/08 73 53 30.05 81% 54 0
8/18/07 74 45 30.17 67% 46 0
8/17/07 68 39 30.07 86% 40 0
8/16/07 74 51 30.03 69% 53 0
8/15/07 76 50 29.99 76% 51 Trace
8/14/07 82 50 29.99 81% 53 0
8/13/07 74 51 29.78 81% 65 0
8/12/07 80 51 30.10 83% 54 0
8/11/07 84 61 30.01 66% 61 0
8/10/07 88 60 29.88 88% 65 0
8/9/07 84 52 29.83 94% 64 .25"
8/7/07 79 53 29.73 81% 53 0
8/6/07 78 55 29.92 83% 59 0
8/5/07 81 59 30.03 75% 62 0
8/4/07 84 51 29.83 82% 59 0
8/3/07 81 54 29.93 83% 55 0
8/2/07 82 57 30.09 69% 58 0
8/1/07 90 56 30.08 77% 62 .31"
 


Home I Trip Planning I Rentals and Outfitting I Reservations I Campgrounds I Sawbill Store I Sawbill News I Contact

© 1997 - 2017, Sawbill Canoe Outfitters, Inc. I Privacy Policy